sensor_id;sensor_type;location;lat;lon;timestamp;temperature;humidity
26278;DHT22;14000;52.056;8.510;2023-07-20T00:02:11;16.50;99.90
26278;DHT22;14000;52.056;8.510;2023-07-20T00:04:36;16.50;99.90
26278;DHT22;14000;52.056;8.510;2023-07-20T00:07:03;16.50;99.90
26278;DHT22;14000;52.056;8.510;2023-07-20T00:09:28;16.50;99.90
26278;DHT22;14000;52.056;8.510;2023-07-20T00:11:54;16.50;99.90
26278;DHT22;14000;52.056;8.510;2023-07-20T00:14:20;16.40;99.90
26278;DHT22;14000;52.056;8.510;2023-07-20T00:16:46;16.40;99.90
26278;DHT22;14000;52.056;8.510;2023-07-20T00:19:14;16.40;99.90
26278;DHT22;14000;52.056;8.510;2023-07-20T00:21:41;16.40;99.90
26278;DHT22;14000;52.056;8.510;2023-07-20T00:24:08;16.40;99.90
26278;DHT22;14000;52.056;8.510;2023-07-20T00:26:33;16.30;99.90
26278;DHT22;14000;52.056;8.510;2023-07-20T00:28:59;16.30;99.90
26278;DHT22;14000;52.056;8.510;2023-07-20T00:31:25;16.40;99.90
26278;DHT22;14000;52.056;8.510;2023-07-20T00:33:51;16.30;99.90
26278;DHT22;14000;52.056;8.510;2023-07-20T00:36:16;16.30;99.90
26278;DHT22;14000;52.056;8.510;2023-07-20T00:38:42;16.30;99.90
26278;DHT22;14000;52.056;8.510;2023-07-20T00:41:08;16.40;99.90
26278;DHT22;14000;52.056;8.510;2023-07-20T00:43:33;16.40;99.90
26278;DHT22;14000;52.056;8.510;2023-07-20T00:45:59;16.30;99.90
26278;DHT22;14000;52.056;8.510;2023-07-20T00:48:25;16.30;99.90
26278;DHT22;14000;52.056;8.510;2023-07-20T00:50:51;16.40;99.90
26278;DHT22;14000;52.056;8.510;2023-07-20T00:53:16;16.40;99.90
26278;DHT22;14000;52.056;8.510;2023-07-20T00:55:42;16.50;99.90
26278;DHT22;14000;52.056;8.510;2023-07-20T00:58:08;16.40;99.90
26278;DHT22;14000;52.056;8.510;2023-07-20T01:00:34;16.50;99.90
26278;DHT22;14000;52.056;8.510;2023-07-20T01:02:59;16.40;99.90
26278;DHT22;14000;52.056;8.510;2023-07-20T01:05:38;16.40;99.90
26278;DHT22;14000;52.056;8.510;2023-07-20T01:08:21;16.40;99.90
26278;DHT22;14000;52.056;8.510;2023-07-20T01:10:58;16.30;99.90
26278;DHT22;14000;52.056;8.510;2023-07-20T01:13:25;16.30;99.90
26278;DHT22;14000;52.056;8.510;2023-07-20T01:16:00;16.30;99.90
26278;DHT22;14000;52.056;8.510;2023-07-20T01:18:26;16.30;99.90
26278;DHT22;14000;52.056;8.510;2023-07-20T01:20:58;16.30;99.90
26278;DHT22;14000;52.056;8.510;2023-07-20T01:23:30;16.30;99.90
26278;DHT22;14000;52.056;8.510;2023-07-20T01:29:10;16.30;99.90
26278;DHT22;14000;52.056;8.510;2023-07-20T01:31:38;16.30;99.90
26278;DHT22;14000;52.056;8.510;2023-07-20T01:34:05;16.20;99.90
26278;DHT22;14000;52.056;8.510;2023-07-20T01:36:35;16.20;99.90
26278;DHT22;14000;52.056;8.510;2023-07-20T01:39:02;16.20;99.90
26278;DHT22;14000;52.056;8.510;2023-07-20T01:41:28;16.30;99.90
26278;DHT22;14000;52.056;8.510;2023-07-20T01:43:57;16.20;99.90
26278;DHT22;14000;52.056;8.510;2023-07-20T01:46:22;16.20;99.90
26278;DHT22;14000;52.056;8.510;2023-07-20T01:48:48;16.20;99.90
26278;DHT22;14000;52.056;8.510;2023-07-20T01:51:13;16.10;99.90
26278;DHT22;14000;52.056;8.510;2023-07-20T01:53:39;16.20;99.90
26278;DHT22;14000;52.056;8.510;2023-07-20T01:56:05;16.10;99.90
26278;DHT22;14000;52.056;8.510;2023-07-20T01:58:30;16.20;99.90
26278;DHT22;14000;52.056;8.510;2023-07-20T02:00:56;16.20;99.90
26278;DHT22;14000;52.056;8.510;2023-07-20T02:03:21;16.20;99.90
26278;DHT22;14000;52.056;8.510;2023-07-20T02:05:49;16.10;99.90
26278;DHT22;14000;52.056;8.510;2023-07-20T02:08:14;16.10;99.90
26278;DHT22;14000;52.056;8.510;2023-07-20T02:10:41;16.10;99.90
26278;DHT22;14000;52.056;8.510;2023-07-20T02:13:07;16.10;99.90
26278;DHT22;14000;52.056;8.510;2023-07-20T02:15:33;16.20;99.90
26278;DHT22;14000;52.056;8.510;2023-07-20T02:17:58;16.20;99.90
26278;DHT22;14000;52.056;8.510;2023-07-20T02:20:24;16.10;99.90
26278;DHT22;14000;52.056;8.510;2023-07-20T02:22:49;16.10;99.90
26278;DHT22;14000;52.056;8.510;2023-07-20T02:25:15;16.20;99.90
26278;DHT22;14000;52.056;8.510;2023-07-20T02:27:41;16.10;99.90
26278;DHT22;14000;52.056;8.510;2023-07-20T02:30:07;16.10;99.90
26278;DHT22;14000;52.056;8.510;2023-07-20T02:32:34;16.10;99.90
26278;DHT22;14000;52.056;8.510;2023-07-20T02:35:00;16.10;99.90
26278;DHT22;14000;52.056;8.510;2023-07-20T02:37:25;16.10;99.90
26278;DHT22;14000;52.056;8.510;2023-07-20T02:39:51;16.20;99.90
26278;DHT22;14000;52.056;8.510;2023-07-20T02:42:17;16.10;99.90
26278;DHT22;14000;52.056;8.510;2023-07-20T02:44:43;16.10;99.90
26278;DHT22;14000;52.056;8.510;2023-07-20T02:47:08;16.10;99.90
26278;DHT22;14000;52.056;8.510;2023-07-20T02:49:34;16.00;99.90
26278;DHT22;14000;52.056;8.510;2023-07-20T02:52:00;16.00;99.90
26278;DHT22;14000;52.056;8.510;2023-07-20T02:54:25;15.90;99.90
26278;DHT22;14000;52.056;8.510;2023-07-20T02:56:51;16.00;99.90
26278;DHT22;14000;52.056;8.510;2023-07-20T02:59:16;15.90;99.90
26278;DHT22;14000;52.056;8.510;2023-07-20T03:01:42;15.90;99.90
26278;DHT22;14000;52.056;8.510;2023-07-20T03:04:08;15.90;99.90
26278;DHT22;14000;52.056;8.510;2023-07-20T03:06:36;15.80;99.90
26278;DHT22;14000;52.056;8.510;2023-07-20T03:09:01;15.80;99.90
26278;DHT22;14000;52.056;8.510;2023-07-20T03:11:27;15.90;99.90
26278;DHT22;14000;52.056;8.510;2023-07-20T03:13:53;15.80;99.90
26278;DHT22;14000;52.056;8.510;2023-07-20T03:16:19;15.90;99.90
26278;DHT22;14000;52.056;8.510;2023-07-20T03:18:45;15.90;99.90
26278;DHT22;14000;52.056;8.510;2023-07-20T03:21:11;15.90;99.90
26278;DHT22;14000;52.056;8.510;2023-07-20T03:23:37;15.90;99.90
26278;DHT22;14000;52.056;8.510;2023-07-20T03:26:03;15.90;99.90
26278;DHT22;14000;52.056;8.510;2023-07-20T03:28:29;15.90;99.90
26278;DHT22;14000;52.056;8.510;2023-07-20T03:30:56;16.00;99.90
26278;DHT22;14000;52.056;8.510;2023-07-20T03:33:24;16.00;99.90
26278;DHT22;14000;52.056;8.510;2023-07-20T03:35:50;16.00;99.90
26278;DHT22;14000;52.056;8.510;2023-07-20T03:38:16;15.80;99.90
26278;DHT22;14000;52.056;8.510;2023-07-20T03:40:52;15.80;99.90
26278;DHT22;14000;52.056;8.510;2023-07-20T03:43:18;15.50;99.90
26278;DHT22;14000;52.056;8.510;2023-07-20T03:45:44;15.50;99.90
26278;DHT22;14000;52.056;8.510;2023-07-20T03:48:11;15.30;99.90
26278;DHT22;14000;52.056;8.510;2023-07-20T03:50:37;15.20;99.90
26278;DHT22;14000;52.056;8.510;2023-07-20T03:53:02;15.10;99.90
26278;DHT22;14000;52.056;8.510;2023-07-20T03:55:28;14.90;99.90
26278;DHT22;14000;52.056;8.510;2023-07-20T03:57:54;14.80;99.90
26278;DHT22;14000;52.056;8.510;2023-07-20T04:00:19;14.70;99.90
26278;DHT22;14000;52.056;8.510;2023-07-20T04:02:45;14.60;99.90
26278;DHT22;14000;52.056;8.510;2023-07-20T04:05:11;14.50;99.90
26278;DHT22;14000;52.056;8.510;2023-07-20T04:07:36;14.40;99.90
26278;DHT22;14000;52.056;8.510;2023-07-20T04:10:02;14.30;99.90
26278;DHT22;14000;52.056;8.510;2023-07-20T04:12:28;14.20;99.90
26278;DHT22;14000;52.056;8.510;2023-07-20T04:14:53;14.20;99.90
26278;DHT22;14000;52.056;8.510;2023-07-20T04:17:19;14.10;99.90
26278;DHT22;14000;52.056;8.510;2023-07-20T04:19:44;14.10;99.90
26278;DHT22;14000;52.056;8.510;2023-07-20T04:22:10;14.10;99.90
26278;DHT22;14000;52.056;8.510;2023-07-20T04:24:36;14.10;99.90
26278;DHT22;14000;52.056;8.510;2023-07-20T04:27:01;14.10;99.90
26278;DHT22;14000;52.056;8.510;2023-07-20T04:29:27;14.10;99.90
26278;DHT22;14000;52.056;8.510;2023-07-20T04:31:52;14.10;99.90
26278;DHT22;14000;52.056;8.510;2023-07-20T04:34:18;14.10;99.90
26278;DHT22;14000;52.056;8.510;2023-07-20T04:36:43;14.10;99.90
26278;DHT22;14000;52.056;8.510;2023-07-20T04:39:09;14.10;99.90
26278;DHT22;14000;52.056;8.510;2023-07-20T04:41:35;14.20;99.90
26278;DHT22;14000;52.056;8.510;2023-07-20T04:44:01;14.20;99.90
26278;DHT22;14000;52.056;8.510;2023-07-20T04:46:27;14.20;99.90
26278;DHT22;14000;52.056;8.510;2023-07-20T04:48:52;14.10;99.90
26278;DHT22;14000;52.056;8.510;2023-07-20T04:51:18;14.20;99.90
26278;DHT22;14000;52.056;8.510;2023-07-20T04:53:46;14.20;99.90
26278;DHT22;14000;52.056;8.510;2023-07-20T04:56:12;14.20;99.90
26278;DHT22;14000;52.056;8.510;2023-07-20T04:58:38;14.30;99.90
26278;DHT22;14000;52.056;8.510;2023-07-20T05:01:03;14.30;99.90
26278;DHT22;14000;52.056;8.510;2023-07-20T05:03:29;14.30;99.90
26278;DHT22;14000;52.056;8.510;2023-07-20T05:05:55;14.30;99.90
26278;DHT22;14000;52.056;8.510;2023-07-20T05:08:20;14.30;99.90
26278;DHT22;14000;52.056;8.510;2023-07-20T05:10:47;14.40;99.90
26278;DHT22;14000;52.056;8.510;2023-07-20T05:13:13;14.40;99.90
26278;DHT22;14000;52.056;8.510;2023-07-20T05:15:39;14.50;99.90
26278;DHT22;14000;52.056;8.510;2023-07-20T05:18:04;14.50;99.90
26278;DHT22;14000;52.056;8.510;2023-07-20T05:20:30;14.40;99.90
26278;DHT22;14000;52.056;8.510;2023-07-20T05:22:57;14.50;99.90
26278;DHT22;14000;52.056;8.510;2023-07-20T05:25:22;14.50;99.90
26278;DHT22;14000;52.056;8.510;2023-07-20T05:27:48;14.50;99.90
26278;DHT22;14000;52.056;8.510;2023-07-20T05:30:14;14.60;99.90
26278;DHT22;14000;52.056;8.510;2023-07-20T05:32:40;14.60;99.90
26278;DHT22;14000;52.056;8.510;2023-07-20T05:35:06;14.50;99.90
26278;DHT22;14000;52.056;8.510;2023-07-20T05:37:32;14.50;99.90
26278;DHT22;14000;52.056;8.510;2023-07-20T05:39:57;14.60;99.90
26278;DHT22;14000;52.056;8.510;2023-07-20T05:42:23;14.60;99.90
26278;DHT22;14000;52.056;8.510;2023-07-20T05:44:49;14.50;99.90
26278;DHT22;14000;52.056;8.510;2023-07-20T05:47:15;14.50;99.90
26278;DHT22;14000;52.056;8.510;2023-07-20T05:49:41;14.50;99.90
26278;DHT22;14000;52.056;8.510;2023-07-20T05:52:06;14.50;99.90
26278;DHT22;14000;52.056;8.510;2023-07-20T05:54:32;14.50;99.90
26278;DHT22;14000;52.056;8.510;2023-07-20T05:56:57;14.50;99.90
26278;DHT22;14000;52.056;8.510;2023-07-20T05:59:24;14.60;99.90
26278;DHT22;14000;52.056;8.510;2023-07-20T06:01:50;14.50;99.90
26278;DHT22;14000;52.056;8.510;2023-07-20T06:04:15;14.60;99.90
26278;DHT22;14000;52.056;8.510;2023-07-20T06:06:41;14.50;99.90
26278;DHT22;14000;52.056;8.510;2023-07-20T06:09:07;14.50;99.90
26278;DHT22;14000;52.056;8.510;2023-07-20T06:11:40;14.50;99.90
26278;DHT22;14000;52.056;8.510;2023-07-20T06:14:05;14.60;99.90
26278;DHT22;14000;52.056;8.510;2023-07-20T06:16:31;14.70;99.90
26278;DHT22;14000;52.056;8.510;2023-07-20T06:18:56;14.70;99.90
26278;DHT22;14000;52.056;8.510;2023-07-20T06:21:22;14.70;99.90
26278;DHT22;14000;52.056;8.510;2023-07-20T06:23:48;14.90;99.90
26278;DHT22;14000;52.056;8.510;2023-07-20T06:26:13;15.00;99.90
26278;DHT22;14000;52.056;8.510;2023-07-20T06:28:39;15.00;99.90
26278;DHT22;14000;52.056;8.510;2023-07-20T06:31:05;14.80;99.90
26278;DHT22;14000;52.056;8.510;2023-07-20T06:33:30;14.70;99.90
26278;DHT22;14000;52.056;8.510;2023-07-20T06:35:57;14.70;99.90
26278;DHT22;14000;52.056;8.510;2023-07-20T06:38:23;14.60;99.90
26278;DHT22;14000;52.056;8.510;2023-07-20T06:40:51;14.60;99.90
26278;DHT22;14000;52.056;8.510;2023-07-20T06:43:17;14.70;99.90
26278;DHT22;14000;52.056;8.510;2023-07-20T06:45:43;14.80;99.90
26278;DHT22;14000;52.056;8.510;2023-07-20T06:48:09;14.90;99.90
26278;DHT22;14000;52.056;8.510;2023-07-20T06:50:34;15.00;99.90
26278;DHT22;14000;52.056;8.510;2023-07-20T06:53:00;15.30;99.90
26278;DHT22;14000;52.056;8.510;2023-07-20T06:55:28;15.50;99.90
26278;DHT22;14000;52.056;8.510;2023-07-20T06:57:54;15.50;99.90
26278;DHT22;14000;52.056;8.510;2023-07-20T07:00:20;15.70;99.90
26278;DHT22;14000;52.056;8.510;2023-07-20T07:02:45;15.80;99.90
26278;DHT22;14000;52.056;8.510;2023-07-20T07:05:11;15.70;99.90
26278;DHT22;14000;52.056;8.510;2023-07-20T07:07:38;15.60;99.90
26278;DHT22;14000;52.056;8.510;2023-07-20T07:10:04;15.40;99.90
26278;DHT22;14000;52.056;8.510;2023-07-20T07:12:30;15.40;99.90
26278;DHT22;14000;52.056;8.510;2023-07-20T07:14:56;15.40;99.90
26278;DHT22;14000;52.056;8.510;2023-07-20T07:17:22;15.60;99.90
26278;DHT22;14000;52.056;8.510;2023-07-20T07:19:47;15.60;99.90
26278;DHT22;14000;52.056;8.510;2023-07-20T07:22:13;15.60;99.90
26278;DHT22;14000;52.056;8.510;2023-07-20T07:24:39;15.60;99.90
26278;DHT22;14000;52.056;8.510;2023-07-20T07:27:08;15.60;99.90
26278;DHT22;14000;52.056;8.510;2023-07-20T07:29:33;15.50;99.90
26278;DHT22;14000;52.056;8.510;2023-07-20T07:31:59;15.60;99.90
26278;DHT22;14000;52.056;8.510;2023-07-20T07:34:25;15.50;99.90
26278;DHT22;14000;52.056;8.510;2023-07-20T07:36:51;15.60;99.90
26278;DHT22;14000;52.056;8.510;2023-07-20T07:39:17;15.70;99.90
26278;DHT22;14000;52.056;8.510;2023-07-20T07:41:42;15.80;99.90
26278;DHT22;14000;52.056;8.510;2023-07-20T07:44:08;15.90;99.90
26278;DHT22;14000;52.056;8.510;2023-07-20T07:46:33;15.80;99.90
26278;DHT22;14000;52.056;8.510;2023-07-20T07:48:59;16.00;99.90
26278;DHT22;14000;52.056;8.510;2023-07-20T07:51:25;16.00;99.90
26278;DHT22;14000;52.056;8.510;2023-07-20T07:53:52;16.00;99.90
26278;DHT22;14000;52.056;8.510;2023-07-20T07:56:18;15.80;99.90
26278;DHT22;14000;52.056;8.510;2023-07-20T07:58:50;15.90;99.90
26278;DHT22;14000;52.056;8.510;2023-07-20T08:01:17;15.90;99.90
26278;DHT22;14000;52.056;8.510;2023-07-20T08:03:44;16.00;99.90
26278;DHT22;14000;52.056;8.510;2023-07-20T08:06:15;16.10;99.90
26278;DHT22;14000;52.056;8.510;2023-07-20T08:08:41;16.30;99.90
26278;DHT22;14000;52.056;8.510;2023-07-20T08:11:07;16.50;99.90
26278;DHT22;14000;52.056;8.510;2023-07-20T08:13:33;16.50;99.90
26278;DHT22;14000;52.056;8.510;2023-07-20T08:15:59;16.50;99.90
26278;DHT22;14000;52.056;8.510;2023-07-20T08:18:25;16.50;99.90
26278;DHT22;14000;52.056;8.510;2023-07-20T08:20:50;16.30;99.90
26278;DHT22;14000;52.056;8.510;2023-07-20T08:23:16;16.20;99.90
26278;DHT22;14000;52.056;8.510;2023-07-20T08:25:42;16.20;99.90
26278;DHT22;14000;52.056;8.510;2023-07-20T08:28:15;16.30;99.90
26278;DHT22;14000;52.056;8.510;2023-07-20T08:30:45;16.30;99.90
26278;DHT22;14000;52.056;8.510;2023-07-20T08:33:14;16.50;99.90
26278;DHT22;14000;52.056;8.510;2023-07-20T08:35:39;16.50;99.90
26278;DHT22;14000;52.056;8.510;2023-07-20T08:38:05;16.60;99.90
26278;DHT22;14000;52.056;8.510;2023-07-20T08:40:32;16.80;99.90
26278;DHT22;14000;52.056;8.510;2023-07-20T08:42:59;17.00;99.90
26278;DHT22;14000;52.056;8.510;2023-07-20T08:45:32;17.10;99.90
26278;DHT22;14000;52.056;8.510;2023-07-20T08:47:59;17.20;99.90
26278;DHT22;14000;52.056;8.510;2023-07-20T08:50:27;17.30;99.90
26278;DHT22;14000;52.056;8.510;2023-07-20T08:52:56;17.20;99.90
26278;DHT22;14000;52.056;8.510;2023-07-20T08:55:22;17.10;99.90
26278;DHT22;14000;52.056;8.510;2023-07-20T08:57:50;17.00;99.90
26278;DHT22;14000;52.056;8.510;2023-07-20T09:00:17;17.00;99.90
26278;DHT22;14000;52.056;8.510;2023-07-20T09:02:46;17.00;99.90
26278;DHT22;14000;52.056;8.510;2023-07-20T09:05:12;17.00;99.90
26278;DHT22;14000;52.056;8.510;2023-07-20T09:07:40;17.20;99.90
26278;DHT22;14000;52.056;8.510;2023-07-20T09:10:07;17.30;99.90
26278;DHT22;14000;52.056;8.510;2023-07-20T09:12:37;17.40;99.90
26278;DHT22;14000;52.056;8.510;2023-07-20T09:15:04;17.50;99.90
26278;DHT22;14000;52.056;8.510;2023-07-20T09:17:30;17.50;99.90
26278;DHT22;14000;52.056;8.510;2023-07-20T09:19:55;17.50;99.90
26278;DHT22;14000;52.056;8.510;2023-07-20T09:22:21;17.40;99.90
26278;DHT22;14000;52.056;8.510;2023-07-20T09:24:47;17.40;99.90
26278;DHT22;14000;52.056;8.510;2023-07-20T09:27:12;17.50;99.90
26278;DHT22;14000;52.056;8.510;2023-07-20T09:29:51;17.60;99.90
26278;DHT22;14000;52.056;8.510;2023-07-20T09:32:21;17.80;99.90
26278;DHT22;14000;52.056;8.510;2023-07-20T09:34:48;17.90;99.90
26278;DHT22;14000;52.056;8.510;2023-07-20T09:37:20;17.80;99.90
26278;DHT22;14000;52.056;8.510;2023-07-20T09:39:46;17.80;99.90
26278;DHT22;14000;52.056;8.510;2023-07-20T09:42:12;17.80;99.90
26278;DHT22;14000;52.056;8.510;2023-07-20T09:44:39;18.00;99.90
26278;DHT22;14000;52.056;8.510;2023-07-20T09:47:05;18.00;99.90
26278;DHT22;14000;52.056;8.510;2023-07-20T09:49:31;18.00;99.90
26278;DHT22;14000;52.056;8.510;2023-07-20T09:51:58;18.00;99.90
26278;DHT22;14000;52.056;8.510;2023-07-20T09:54:26;18.00;99.90
26278;DHT22;14000;52.056;8.510;2023-07-20T09:56:52;18.10;99.90
26278;DHT22;14000;52.056;8.510;2023-07-20T09:59:18;18.20;99.90
26278;DHT22;14000;52.056;8.510;2023-07-20T10:01:46;18.30;99.90
26278;DHT22;14000;52.056;8.510;2023-07-20T10:04:14;18.30;99.90
26278;DHT22;14000;52.056;8.510;2023-07-20T10:06:43;18.40;99.90
26278;DHT22;14000;52.056;8.510;2023-07-20T10:09:13;18.50;99.90
26278;DHT22;14000;52.056;8.510;2023-07-20T10:11:49;18.60;99.90
26278;DHT22;14000;52.056;8.510;2023-07-20T10:14:20;18.70;99.90
26278;DHT22;14000;52.056;8.510;2023-07-20T10:16:54;18.70;99.90
26278;DHT22;14000;52.056;8.510;2023-07-20T10:19:34;18.70;99.90
26278;DHT22;14000;52.056;8.510;2023-07-20T10:22:13;18.80;99.90
26278;DHT22;14000;52.056;8.510;2023-07-20T10:24:44;19.00;99.90
26278;DHT22;14000;52.056;8.510;2023-07-20T10:27:10;19.20;99.90
26278;DHT22;14000;52.056;8.510;2023-07-20T10:29:36;19.30;99.90
26278;DHT22;14000;52.056;8.510;2023-07-20T10:32:02;19.30;99.90
26278;DHT22;14000;52.056;8.510;2023-07-20T10:34:28;19.40;99.90
26278;DHT22;14000;52.056;8.510;2023-07-20T10:36:54;19.40;99.90
26278;DHT22;14000;52.056;8.510;2023-07-20T10:39:33;19.50;99.90
26278;DHT22;14000;52.056;8.510;2023-07-20T10:42:03;19.50;99.90
26278;DHT22;14000;52.056;8.510;2023-07-20T10:44:30;19.50;99.90
26278;DHT22;14000;52.056;8.510;2023-07-20T10:47:00;19.50;99.90
26278;DHT22;14000;52.056;8.510;2023-07-20T10:49:26;19.50;99.90
26278;DHT22;14000;52.056;8.510;2023-07-20T10:52:00;19.40;99.90
26278;DHT22;14000;52.056;8.510;2023-07-20T10:56:51;19.50;99.90
26278;DHT22;14000;52.056;8.510;2023-07-20T10:59:20;19.70;99.90
26278;DHT22;14000;52.056;8.510;2023-07-20T11:02:06;19.80;99.90
26278;DHT22;14000;52.056;8.510;2023-07-20T11:04:39;20.00;99.90
26278;DHT22;14000;52.056;8.510;2023-07-20T11:07:05;20.20;99.90
26278;DHT22;14000;52.056;8.510;2023-07-20T11:09:35;20.50;99.90
26278;DHT22;14000;52.056;8.510;2023-07-20T11:12:27;20.60;99.90
26278;DHT22;14000;52.056;8.510;2023-07-20T11:14:57;20.50;99.90
26278;DHT22;14000;52.056;8.510;2023-07-20T11:17:31;20.60;99.90
26278;DHT22;14000;52.056;8.510;2023-07-20T11:19:58;20.90;99.90
26278;DHT22;14000;52.056;8.510;2023-07-20T11:22:26;21.00;99.90
26278;DHT22;14000;52.056;8.510;2023-07-20T11:24:55;20.90;99.90
26278;DHT22;14000;52.056;8.510;2023-07-20T11:27:21;20.60;99.90
26278;DHT22;14000;52.056;8.510;2023-07-20T11:29:48;20.50;99.90
26278;DHT22;14000;52.056;8.510;2023-07-20T11:32:22;20.90;99.90
26278;DHT22;14000;52.056;8.510;2023-07-20T11:34:48;21.00;99.90
26278;DHT22;14000;52.056;8.510;2023-07-20T11:37:14;20.80;99.90
26278;DHT22;14000;52.056;8.510;2023-07-20T11:39:40;20.60;99.90
26278;DHT22;14000;52.056;8.510;2023-07-20T11:42:06;21.10;99.90
26278;DHT22;14000;52.056;8.510;2023-07-20T11:44:34;22.60;99.90
26278;DHT22;14000;52.056;8.510;2023-07-20T11:47:07;23.50;99.90
26278;DHT22;14000;52.056;8.510;2023-07-20T11:49:43;23.40;99.90
26278;DHT22;14000;52.056;8.510;2023-07-20T11:52:11;22.80;99.90
26278;DHT22;14000;52.056;8.510;2023-07-20T11:54:39;22.40;99.90
26278;DHT22;14000;52.056;8.510;2023-07-20T11:57:05;22.10;99.90
26278;DHT22;14000;52.056;8.510;2023-07-20T11:59:31;22.70;99.90
26278;DHT22;14000;52.056;8.510;2023-07-20T12:01:58;23.70;99.90
26278;DHT22;14000;52.056;8.510;2023-07-20T12:04:23;24.70;99.90
26278;DHT22;14000;52.056;8.510;2023-07-20T12:06:49;25.60;99.90
26278;DHT22;14000;52.056;8.510;2023-07-20T12:09:16;26.00;99.90
26278;DHT22;14000;52.056;8.510;2023-07-20T12:11:44;26.30;99.90
26278;DHT22;14000;52.056;8.510;2023-07-20T12:14:11;25.80;99.90
26278;DHT22;14000;52.056;8.510;2023-07-20T12:16:37;25.20;99.90
26278;DHT22;14000;52.056;8.510;2023-07-20T12:19:10;25.10;99.90
26278;DHT22;14000;52.056;8.510;2023-07-20T12:21:38;25.30;99.90
26278;DHT22;14000;52.056;8.510;2023-07-20T12:24:06;25.40;99.90
26278;DHT22;14000;52.056;8.510;2023-07-20T12:26:33;25.30;99.90
26278;DHT22;14000;52.056;8.510;2023-07-20T12:28:59;25.20;99.90
26278;DHT22;14000;52.056;8.510;2023-07-20T12:31:26;24.70;99.90
26278;DHT22;14000;52.056;8.510;2023-07-20T12:33:52;24.50;99.90
26278;DHT22;14000;52.056;8.510;2023-07-20T12:36:18;24.30;99.90
26278;DHT22;14000;52.056;8.510;2023-07-20T12:38:44;24.30;99.90
26278;DHT22;14000;52.056;8.510;2023-07-20T12:41:11;24.20;99.90
26278;DHT22;14000;52.056;8.510;2023-07-20T12:43:44;24.30;99.90
26278;DHT22;14000;52.056;8.510;2023-07-20T12:46:10;24.40;99.90
26278;DHT22;14000;52.056;8.510;2023-07-20T12:48:40;24.50;99.90
26278;DHT22;14000;52.056;8.510;2023-07-20T12:51:08;24.30;99.90
26278;DHT22;14000;52.056;8.510;2023-07-20T12:53:34;24.30;99.90
26278;DHT22;14000;52.056;8.510;2023-07-20T12:56:00;24.10;99.90
26278;DHT22;14000;52.056;8.510;2023-07-20T12:58:26;23.90;99.90
26278;DHT22;14000;52.056;8.510;2023-07-20T13:00:52;24.00;99.90
26278;DHT22;14000;52.056;8.510;2023-07-20T13:03:18;23.80;99.90
26278;DHT22;14000;52.056;8.510;2023-07-20T13:05:47;23.60;99.90
26278;DHT22;14000;52.056;8.510;2023-07-20T13:08:13;23.40;99.90
26278;DHT22;14000;52.056;8.510;2023-07-20T13:10:39;23.30;99.90
26278;DHT22;14000;52.056;8.510;2023-07-20T13:13:05;23.20;99.90
26278;DHT22;14000;52.056;8.510;2023-07-20T13:15:33;23.00;99.90
26278;DHT22;14000;52.056;8.510;2023-07-20T13:18:05;23.10;99.90
26278;DHT22;14000;52.056;8.510;2023-07-20T13:20:31;23.40;99.90
26278;DHT22;14000;52.056;8.510;2023-07-20T13:22:56;23.30;99.90
26278;DHT22;14000;52.056;8.510;2023-07-20T13:25:22;23.10;99.90
26278;DHT22;14000;52.056;8.510;2023-07-20T13:27:47;23.10;99.90
26278;DHT22;14000;52.056;8.510;2023-07-20T13:30:13;23.20;99.90
26278;DHT22;14000;52.056;8.510;2023-07-20T13:32:42;23.30;99.90
26278;DHT22;14000;52.056;8.510;2023-07-20T13:35:09;23.40;99.90
26278;DHT22;14000;52.056;8.510;2023-07-20T13:37:35;23.50;99.90
26278;DHT22;14000;52.056;8.510;2023-07-20T13:40:00;23.60;99.90
26278;DHT22;14000;52.056;8.510;2023-07-20T13:42:26;23.70;99.90
26278;DHT22;14000;52.056;8.510;2023-07-20T13:44:52;23.80;99.90
26278;DHT22;14000;52.056;8.510;2023-07-20T13:47:17;23.70;99.90
26278;DHT22;14000;52.056;8.510;2023-07-20T13:49:43;23.90;99.90
26278;DHT22;14000;52.056;8.510;2023-07-20T13:52:09;24.00;99.90
26278;DHT22;14000;52.056;8.510;2023-07-20T13:54:35;24.00;99.90
26278;DHT22;14000;52.056;8.510;2023-07-20T13:57:00;24.00;99.90
26278;DHT22;14000;52.056;8.510;2023-07-20T13:59:26;23.90;99.90
26278;DHT22;14000;52.056;8.510;2023-07-20T14:01:52;23.90;99.90
26278;DHT22;14000;52.056;8.510;2023-07-20T14:04:17;23.90;99.90
26278;DHT22;14000;52.056;8.510;2023-07-20T14:06:43;23.60;99.90
26278;DHT22;14000;52.056;8.510;2023-07-20T14:09:09;23.30;99.90
26278;DHT22;14000;52.056;8.510;2023-07-20T14:11:35;23.00;99.90
26278;DHT22;14000;52.056;8.510;2023-07-20T14:14:00;22.70;99.90
26278;DHT22;14000;52.056;8.510;2023-07-20T14:16:26;22.60;99.90
26278;DHT22;14000;52.056;8.510;2023-07-20T14:18:52;22.90;99.90
26278;DHT22;14000;52.056;8.510;2023-07-20T14:21:19;23.10;99.90
26278;DHT22;14000;52.056;8.510;2023-07-20T14:23:46;23.20;99.90
26278;DHT22;14000;52.056;8.510;2023-07-20T14:26:13;23.10;99.90
26278;DHT22;14000;52.056;8.510;2023-07-20T14:28:38;22.70;99.90
26278;DHT22;14000;52.056;8.510;2023-07-20T14:31:04;22.50;99.90
26278;DHT22;14000;52.056;8.510;2023-07-20T14:33:30;22.20;99.90
26278;DHT22;14000;52.056;8.510;2023-07-20T14:35:56;21.90;99.90
26278;DHT22;14000;52.056;8.510;2023-07-20T14:38:22;21.70;99.90
26278;DHT22;14000;52.056;8.510;2023-07-20T14:40:47;21.50;99.90
26278;DHT22;14000;52.056;8.510;2023-07-20T14:43:13;21.50;99.90
26278;DHT22;14000;52.056;8.510;2023-07-20T14:45:42;21.40;99.90
26278;DHT22;14000;52.056;8.510;2023-07-20T14:48:08;21.40;99.90
26278;DHT22;14000;52.056;8.510;2023-07-20T14:50:34;21.30;99.90
26278;DHT22;14000;52.056;8.510;2023-07-20T14:53:00;21.10;99.90
26278;DHT22;14000;52.056;8.510;2023-07-20T14:55:25;21.00;99.90
26278;DHT22;14000;52.056;8.510;2023-07-20T14:57:51;20.90;99.90
26278;DHT22;14000;52.056;8.510;2023-07-20T15:00:17;20.80;99.90
26278;DHT22;14000;52.056;8.510;2023-07-20T15:02:43;20.80;99.90
26278;DHT22;14000;52.056;8.510;2023-07-20T15:05:12;20.90;99.90
26278;DHT22;14000;52.056;8.510;2023-07-20T15:07:45;21.10;99.90
26278;DHT22;14000;52.056;8.510;2023-07-20T15:10:11;21.10;99.90
26278;DHT22;14000;52.056;8.510;2023-07-20T15:12:36;21.20;99.90
26278;DHT22;14000;52.056;8.510;2023-07-20T15:15:04;21.40;99.90
26278;DHT22;14000;52.056;8.510;2023-07-20T15:17:30;21.50;99.90
26278;DHT22;14000;52.056;8.510;2023-07-20T15:19:56;21.50;99.90
26278;DHT22;14000;52.056;8.510;2023-07-20T15:22:22;21.40;99.90
26278;DHT22;14000;52.056;8.510;2023-07-20T15:24:47;21.60;99.90
26278;DHT22;14000;52.056;8.510;2023-07-20T15:27:13;21.50;99.90
26278;DHT22;14000;52.056;8.510;2023-07-20T15:29:38;21.40;99.90
26278;DHT22;14000;52.056;8.510;2023-07-20T15:32:05;21.40;99.90
26278;DHT22;14000;52.056;8.510;2023-07-20T15:34:31;21.40;99.90